CDT,Max TemperatureF,Mean TemperatureF,Min TemperatureF,Max Dew PointF,MeanDew PointF,Min DewpointF,Max Humidity, Mean Humidity, Min Humidity, Max Sea Level PressureIn, Mean Sea Level PressureIn, Min Sea Level PressureIn, Max VisibilityMiles, Mean VisibilityMiles, Min VisibilityMiles, Max Wind SpeedMPH, Mean Wind SpeedMPH, Max Gust SpeedMPH,PrecipitationIn, CloudCover, Events, WindDirDegrees
2012-9-1,84,76,69,70,68,66,94,78,58,29.97,29.92,29.87,10,10,8,26,11,51,0.01,6,Rain,257
2012-9-2,91,78,66,69,67,64,100,84,44,29.99,29.95,29.87,10,6,0,8,3,,0.00,0,Fog,275
2012-9-3,99,86,73,72,69,65,87,61,34,29.93,29.89,29.84,10,10,10,9,4,,0.00,0,,172
2012-9-4,98,86,73,72,67,64,87,57,34,29.97,29.89,29.83,10,10,9,8,6,,0.00,0,,183
2012-9-5,95,85,75,69,66,62,73,57,33,29.91,29.84,29.81,10,10,10,10,6,21,0.00,0,Thunderstorm,157
2012-9-6,96,84,73,70,67,59,87,64,32,29.93,29.89,29.84,10,10,8,15,5,26,0.06,1,Rain-Thunderstorm,121
2012-9-7,90,77,63,72,66,60,100,80,48,30.04,29.88,29.69,10,9,1,34,10,50,0.85,5,Rain-Thunderstorm,301
2012-9-8,73,64,55,59,52,46,100,71,39,30.14,30.08,30.01,10,9,3,15,8,22,0.00,1,,342
2012-9-9,81,68,55,54,51,45,84,59,29,30.14,30.10,30.07,10,10,7,9,4,17,0.00,0,,324
2012-9-10,82,69,57,59,54,49,84,62,33,30.18,30.12,30.06,10,10,10,14,7,20,0.00,0,,111
2012-9-11,87,74,61,60,56,52,87,59,33,30.13,30.08,30.02,10,10,10,15,8,20,0.00,0,,147
2012-9-12,84,74,64,60,58,54,84,60,35,30.13,30.08,30.04,10,10,10,14,9,21,0.00,0,,140
2012-9-13,86,75,64,66,61,57,81,68,40,30.22,30.14,30.09,10,10,10,15,8,21,0.00,2,,84
2012-9-14,64,62,59,61,59,55,100,91,78,30.28,30.24,30.19,10,7,2,13,9,17,1.21,8,Rain,60
2012-9-15,66,63,62,64,63,61,100,96,93,30.24,30.17,30.10,10,6,0,12,8,,0.62,8,Fog-Rain,75
2012-9-16,73,68,62,67,64,62,100,90,69,30.12,30.07,29.99,10,6,0,7,3,,0.05,7,Fog-Rain,145
2012-9-17,73,68,62,65,62,61,100,90,69,29.98,29.93,29.84,10,5,0,7,1,,0.00,6,Fog,333
2012-9-18,69,61,53,60,47,42,90,63,40,30.12,30.05,29.91,10,10,10,15,9,20,0.00,2,,10
2012-9-19,77,64,51,50,48,44,89,59,34,30.14,30.07,30.01,10,10,10,15,9,21,0.00,0,,162
2012-9-20,82,71,61,59,54,49,67,56,38,30.04,29.99,29.96,10,10,10,13,8,,0.00,0,,170
2012-9-21,82,73,64,62,58,51,78,61,44,29.98,29.92,29.87,10,10,10,17,10,29,0.00,1,Rain,233
2012-9-22,80,68,55,54,47,37,87,54,30,30.22,30.12,29.97,10,9,2,10,5,,0.00,0,,27
2012-9-23,73,62,53,44,40,34,55,46,31,30.31,30.23,30.19,10,10,10,12,7,,0.00,1,Rain,78
2012-9-24,78,68,59,60,50,42,73,57,47,30.19,30.09,29.94,10,10,8,18,11,24,0.00,0,,138
2012-9-25,88,80,71,64,60,51,73,55,31,29.95,29.90,29.84,10,10,10,20,14,26,0.00,0,,192
2012-9-26,78,71,64,66,64,62,94,77,62,30.08,30.00,29.90,10,10,9,15,8,16,0.18,3,Rain-Thunderstorm,134
2012-9-27,79,70,64,66,63,60,96,81,56,30.15,30.10,30.06,10,9,4,9,4,,0.01,6,Rain,91
2012-9-28,80,70,62,67,64,63,100,84,60,30.13,30.08,30.02,10,8,0,14,3,21,0.00,4,Fog-Rain-Thunderstorm,45
2012-9-29,71,68,62,65,63,58,97,87,69,30.11,30.05,29.98,10,8,2,10,7,,0.00,6,,72
2012-9-30,68,62,57,58,54,51,93,75,57,29.98,29.91,29.85,10,10,10,10,3,,0.00,0,,21